sensor_id;sensor_type;location;lat;lon;timestamp;P1;durP1;ratioP1;P2;durP2;ratioP2
67839;SDS011;54636;51.684;5.142;2024-02-26T00:00:11;2.78;;;2.25;;
67839;SDS011;54636;51.684;5.142;2024-02-26T00:02:37;1.92;;;1.67;;
67839;SDS011;54636;51.684;5.142;2024-02-26T00:05:06;1.63;;;1.52;;
67839;SDS011;54636;51.684;5.142;2024-02-26T00:07:32;3.40;;;1.70;;
67839;SDS011;54636;51.684;5.142;2024-02-26T00:09:57;4.57;;;2.15;;
67839;SDS011;54636;51.684;5.142;2024-02-26T00:12:23;2.17;;;1.92;;
67839;SDS011;54636;51.684;5.142;2024-02-26T00:14:48;3.15;;;1.92;;
67839;SDS011;54636;51.684;5.142;2024-02-26T00:17:14;2.78;;;1.77;;
67839;SDS011;54636;51.684;5.142;2024-02-26T00:19:40;1.80;;;1.70;;
67839;SDS011;54636;51.684;5.142;2024-02-26T00:22:06;2.20;;;1.73;;
67839;SDS011;54636;51.684;5.142;2024-02-26T00:24:31;1.90;;;1.70;;
67839;SDS011;54636;51.684;5.142;2024-02-26T00:26:57;5.35;;;2.72;;
67839;SDS011;54636;51.684;5.142;2024-02-26T00:29:22;2.38;;;1.65;;
67839;SDS011;54636;51.684;5.142;2024-02-26T00:31:48;1.60;;;1.50;;
67839;SDS011;54636;51.684;5.142;2024-02-26T00:34:14;2.28;;;1.70;;
67839;SDS011;54636;51.684;5.142;2024-02-26T00:36:39;2.88;;;1.95;;
67839;SDS011;54636;51.684;5.142;2024-02-26T00:39:04;1.95;;;1.70;;
67839;SDS011;54636;51.684;5.142;2024-02-26T00:41:30;1.42;;;1.42;;
67839;SDS011;54636;51.684;5.142;2024-02-26T00:43:55;3.28;;;2.08;;
67839;SDS011;54636;51.684;5.142;2024-02-26T00:46:21;1.90;;;1.73;;
67839;SDS011;54636;51.684;5.142;2024-02-26T00:48:46;3.55;;;2.22;;
67839;SDS011;54636;51.684;5.142;2024-02-26T00:51:11;1.75;;;1.60;;
67839;SDS011;54636;51.684;5.142;2024-02-26T00:53:37;2.50;;;1.98;;
67839;SDS011;54636;51.684;5.142;2024-02-26T00:56:02;4.70;;;2.00;;
67839;SDS011;54636;51.684;5.142;2024-02-26T00:58:28;2.90;;;2.60;;
67839;SDS011;54636;51.684;5.142;2024-02-26T01:00:53;2.00;;;1.90;;
67839;SDS011;54636;51.684;5.142;2024-02-26T01:03:19;2.22;;;1.98;;
67839;SDS011;54636;51.684;5.142;2024-02-26T01:05:44;2.20;;;2.00;;
67839;SDS011;54636;51.684;5.142;2024-02-26T01:08:10;2.17;;;1.98;;
67839;SDS011;54636;51.684;5.142;2024-02-26T01:10:35;3.38;;;1.70;;
67839;SDS011;54636;51.684;5.142;2024-02-26T01:13:01;3.00;;;1.35;;
67839;SDS011;54636;51.684;5.142;2024-02-26T01:15:27;1.70;;;1.60;;
67839;SDS011;54636;51.684;5.142;2024-02-26T01:17:52;1.40;;;1.35;;
67839;SDS011;54636;51.684;5.142;2024-02-26T01:20:18;1.73;;;1.63;;
67839;SDS011;54636;51.684;5.142;2024-02-26T01:22:44;2.75;;;2.17;;
67839;SDS011;54636;51.684;5.142;2024-02-26T01:25:09;1.80;;;1.70;;
67839;SDS011;54636;51.684;5.142;2024-02-26T01:27:35;2.33;;;1.90;;
67839;SDS011;54636;51.684;5.142;2024-02-26T01:30:05;1.90;;;1.80;;
67839;SDS011;54636;51.684;5.142;2024-02-26T01:32:31;1.95;;;1.83;;
67839;SDS011;54636;51.684;5.142;2024-02-26T01:34:56;1.60;;;1.50;;
67839;SDS011;54636;51.684;5.142;2024-02-26T01:37:22;2.30;;;1.85;;
67839;SDS011;54636;51.684;5.142;2024-02-26T01:39:47;5.97;;;2.50;;
67839;SDS011;54636;51.684;5.142;2024-02-26T01:42:13;3.22;;;2.20;;
67839;SDS011;54636;51.684;5.142;2024-02-26T01:44:38;2.38;;;2.08;;
67839;SDS011;54636;51.684;5.142;2024-02-26T01:47:04;4.22;;;2.50;;
67839;SDS011;54636;51.684;5.142;2024-02-26T01:49:30;3.85;;;2.53;;
67839;SDS011;54636;51.684;5.142;2024-02-26T01:51:56;3.88;;;2.10;;
67839;SDS011;54636;51.684;5.142;2024-02-26T01:54:23;4.00;;;2.17;;
67839;SDS011;54636;51.684;5.142;2024-02-26T01:56:49;2.60;;;2.40;;
67839;SDS011;54636;51.684;5.142;2024-02-26T01:59:15;4.13;;;2.60;;
67839;SDS011;54636;51.684;5.142;2024-02-26T02:01:42;2.80;;;2.60;;
67839;SDS011;54636;51.684;5.142;2024-02-26T02:04:10;3.30;;;3.00;;
67839;SDS011;54636;51.684;5.142;2024-02-26T02:06:36;3.65;;;2.70;;
67839;SDS011;54636;51.684;5.142;2024-02-26T02:09:03;2.72;;;2.53;;
67839;SDS011;54636;51.684;5.142;2024-02-26T02:11:32;2.35;;;2.25;;
67839;SDS011;54636;51.684;5.142;2024-02-26T02:13:59;2.75;;;2.55;;
67839;SDS011;54636;51.684;5.142;2024-02-26T02:16:24;3.22;;;2.45;;
67839;SDS011;54636;51.684;5.142;2024-02-26T02:18:50;3.50;;;3.22;;
67839;SDS011;54636;51.684;5.142;2024-02-26T02:21:15;3.35;;;3.15;;
67839;SDS011;54636;51.684;5.142;2024-02-26T02:23:40;2.97;;;2.78;;
67839;SDS011;54636;51.684;5.142;2024-02-26T02:26:11;3.25;;;2.85;;
67839;SDS011;54636;51.684;5.142;2024-02-26T02:28:36;3.30;;;3.00;;
67839;SDS011;54636;51.684;5.142;2024-02-26T02:31:02;3.60;;;3.30;;
67839;SDS011;54636;51.684;5.142;2024-02-26T02:33:28;5.10;;;3.40;;
67839;SDS011;54636;51.684;5.142;2024-02-26T02:35:54;3.28;;;3.05;;
67839;SDS011;54636;51.684;5.142;2024-02-26T02:38:20;3.25;;;2.97;;
67839;SDS011;54636;51.684;5.142;2024-02-26T02:40:45;3.88;;;3.38;;
67839;SDS011;54636;51.684;5.142;2024-02-26T02:43:11;4.03;;;3.72;;
67839;SDS011;54636;51.684;5.142;2024-02-26T02:45:36;3.67;;;3.38;;
67839;SDS011;54636;51.684;5.142;2024-02-26T02:48:02;3.90;;;3.55;;
67839;SDS011;54636;51.684;5.142;2024-02-26T02:50:27;3.67;;;3.38;;
67839;SDS011;54636;51.684;5.142;2024-02-26T02:52:54;3.30;;;3.10;;
67839;SDS011;54636;51.684;5.142;2024-02-26T02:55:19;3.45;;;2.95;;
67839;SDS011;54636;51.684;5.142;2024-02-26T02:57:45;3.97;;;3.55;;
67839;SDS011;54636;51.684;5.142;2024-02-26T03:00:10;2.72;;;2.53;;
67839;SDS011;54636;51.684;5.142;2024-02-26T03:02:36;5.50;;;3.22;;
67839;SDS011;54636;51.684;5.142;2024-02-26T03:05:03;3.88;;;3.50;;
67839;SDS011;54636;51.684;5.142;2024-02-26T03:07:31;4.70;;;3.33;;
67839;SDS011;54636;51.684;5.142;2024-02-26T03:09:57;4.05;;;3.15;;
67839;SDS011;54636;51.684;5.142;2024-02-26T03:12:22;3.88;;;3.45;;
67839;SDS011;54636;51.684;5.142;2024-02-26T03:14:48;3.63;;;3.33;;
67839;SDS011;54636;51.684;5.142;2024-02-26T03:17:13;4.43;;;3.90;;
67839;SDS011;54636;51.684;5.142;2024-02-26T03:19:39;3.83;;;3.38;;
67839;SDS011;54636;51.684;5.142;2024-02-26T03:22:04;4.97;;;3.70;;
67839;SDS011;54636;51.684;5.142;2024-02-26T03:24:29;3.63;;;3.33;;
67839;SDS011;54636;51.684;5.142;2024-02-26T03:26:55;4.65;;;3.42;;
67839;SDS011;54636;51.684;5.142;2024-02-26T03:29:21;3.33;;;3.03;;
67839;SDS011;54636;51.684;5.142;2024-02-26T03:31:46;4.82;;;3.67;;
67839;SDS011;54636;51.684;5.142;2024-02-26T03:34:12;3.80;;;3.50;;
67839;SDS011;54636;51.684;5.142;2024-02-26T03:36:38;4.10;;;3.80;;
67839;SDS011;54636;51.684;5.142;2024-02-26T03:39:04;3.92;;;3.65;;
67839;SDS011;54636;51.684;5.142;2024-02-26T03:41:32;4.47;;;3.80;;
67839;SDS011;54636;51.684;5.142;2024-02-26T03:43:58;3.72;;;3.42;;
67839;SDS011;54636;51.684;5.142;2024-02-26T03:46:24;2.63;;;2.53;;
67839;SDS011;54636;51.684;5.142;2024-02-26T03:48:49;3.80;;;3.60;;
67839;SDS011;54636;51.684;5.142;2024-02-26T03:51:14;7.30;;;3.20;;
67839;SDS011;54636;51.684;5.142;2024-02-26T03:53:40;4.78;;;4.13;;
67839;SDS011;54636;51.684;5.142;2024-02-26T03:56:05;17.25;;;4.40;;
67839;SDS011;54636;51.684;5.142;2024-02-26T03:58:31;4.60;;;4.30;;
67839;SDS011;54636;51.684;5.142;2024-02-26T04:00:58;3.80;;;3.50;;
67839;SDS011;54636;51.684;5.142;2024-02-26T04:03:24;4.72;;;3.95;;
67839;SDS011;54636;51.684;5.142;2024-02-26T04:05:50;4.43;;;4.13;;
67839;SDS011;54636;51.684;5.142;2024-02-26T04:08:16;4.95;;;4.65;;
67839;SDS011;54636;51.684;5.142;2024-02-26T04:10:41;3.25;;;2.85;;
67839;SDS011;54636;51.684;5.142;2024-02-26T04:13:07;4.97;;;4.68;;
67839;SDS011;54636;51.684;5.142;2024-02-26T04:15:33;4.03;;;3.72;;
67839;SDS011;54636;51.684;5.142;2024-02-26T04:17:58;4.70;;;4.18;;
67839;SDS011;54636;51.684;5.142;2024-02-26T04:20:24;3.55;;;3.35;;
67839;SDS011;54636;51.684;5.142;2024-02-26T04:22:49;4.07;;;3.78;;
67839;SDS011;54636;51.684;5.142;2024-02-26T04:25:14;3.92;;;3.47;;
67839;SDS011;54636;51.684;5.142;2024-02-26T04:27:40;4.13;;;3.80;;
67839;SDS011;54636;51.684;5.142;2024-02-26T04:30:06;7.15;;;3.17;;
67839;SDS011;54636;51.684;5.142;2024-02-26T04:32:32;3.95;;;3.45;;
67839;SDS011;54636;51.684;5.142;2024-02-26T04:34:57;5.10;;;3.72;;
67839;SDS011;54636;51.684;5.142;2024-02-26T04:37:23;4.93;;;4.18;;
67839;SDS011;54636;51.684;5.142;2024-02-26T04:39:48;5.25;;;4.32;;
67839;SDS011;54636;51.684;5.142;2024-02-26T04:42:13;3.65;;;3.20;;
67839;SDS011;54636;51.684;5.142;2024-02-26T04:44:39;4.63;;;3.75;;
67839;SDS011;54636;51.684;5.142;2024-02-26T04:47:04;4.25;;;3.83;;
67839;SDS011;54636;51.684;5.142;2024-02-26T04:49:30;3.80;;;3.50;;
67839;SDS011;54636;51.684;5.142;2024-02-26T04:51:55;3.50;;;3.30;;
67839;SDS011;54636;51.684;5.142;2024-02-26T04:54:20;5.65;;;3.78;;
67839;SDS011;54636;51.684;5.142;2024-02-26T04:56:46;4.38;;;3.35;;
67839;SDS011;54636;51.684;5.142;2024-02-26T04:59:12;4.30;;;3.90;;
67839;SDS011;54636;51.684;5.142;2024-02-26T05:01:39;2.92;;;2.58;;
67839;SDS011;54636;51.684;5.142;2024-02-26T05:04:05;4.15;;;2.65;;
67839;SDS011;54636;51.684;5.142;2024-02-26T05:06:30;4.50;;;3.15;;
67839;SDS011;54636;51.684;5.142;2024-02-26T05:08:55;3.25;;;3.03;;
67839;SDS011;54636;51.684;5.142;2024-02-26T05:11:21;4.20;;;3.90;;
67839;SDS011;54636;51.684;5.142;2024-02-26T05:13:47;5.35;;;3.42;;
67839;SDS011;54636;51.684;5.142;2024-02-26T05:16:13;5.22;;;3.80;;
67839;SDS011;54636;51.684;5.142;2024-02-26T05:18:38;4.82;;;3.65;;
67839;SDS011;54636;51.684;5.142;2024-02-26T05:21:03;4.65;;;4.13;;
67839;SDS011;54636;51.684;5.142;2024-02-26T05:23:29;4.07;;;3.85;;
67839;SDS011;54636;51.684;5.142;2024-02-26T05:25:55;5.55;;;5.15;;
67839;SDS011;54636;51.684;5.142;2024-02-26T05:28:20;4.15;;;3.92;;
67839;SDS011;54636;51.684;5.142;2024-02-26T05:30:46;4.80;;;4.40;;
67839;SDS011;54636;51.684;5.142;2024-02-26T05:33:11;5.15;;;4.65;;
67839;SDS011;54636;51.684;5.142;2024-02-26T05:35:37;4.80;;;4.20;;
67839;SDS011;54636;51.684;5.142;2024-02-26T05:38:03;7.60;;;5.32;;
67839;SDS011;54636;51.684;5.142;2024-02-26T05:40:28;5.53;;;4.88;;
67839;SDS011;54636;51.684;5.142;2024-02-26T05:42:55;5.85;;;4.30;;
67839;SDS011;54636;51.684;5.142;2024-02-26T05:45:20;5.38;;;4.90;;
67839;SDS011;54636;51.684;5.142;2024-02-26T05:47:46;4.20;;;3.90;;
67839;SDS011;54636;51.684;5.142;2024-02-26T05:50:12;4.25;;;3.92;;
67839;SDS011;54636;51.684;5.142;2024-02-26T05:52:38;4.50;;;4.20;;
67839;SDS011;54636;51.684;5.142;2024-02-26T05:55:04;4.78;;;4.45;;
67839;SDS011;54636;51.684;5.142;2024-02-26T05:57:30;5.38;;;4.97;;
67839;SDS011;54636;51.684;5.142;2024-02-26T05:59:56;8.93;;;5.65;;
67839;SDS011;54636;51.684;5.142;2024-02-26T06:02:22;10.98;;;5.82;;
67839;SDS011;54636;51.684;5.142;2024-02-26T06:04:47;6.32;;;5.93;;
67839;SDS011;54636;51.684;5.142;2024-02-26T06:07:13;7.03;;;5.55;;
67839;SDS011;54636;51.684;5.142;2024-02-26T06:09:38;5.65;;;5.25;;
67839;SDS011;54636;51.684;5.142;2024-02-26T06:12:04;7.10;;;5.30;;
67839;SDS011;54636;51.684;5.142;2024-02-26T06:14:30;5.53;;;5.03;;
67839;SDS011;54636;51.684;5.142;2024-02-26T06:16:55;5.55;;;5.15;;
67839;SDS011;54636;51.684;5.142;2024-02-26T06:19:21;8.30;;;5.75;;
67839;SDS011;54636;51.684;5.142;2024-02-26T06:21:46;7.25;;;5.93;;
67839;SDS011;54636;51.684;5.142;2024-02-26T06:24:11;6.40;;;5.75;;
67839;SDS011;54636;51.684;5.142;2024-02-26T06:26:37;6.63;;;4.82;;
67839;SDS011;54636;51.684;5.142;2024-02-26T06:29:02;5.85;;;5.45;;
67839;SDS011;54636;51.684;5.142;2024-02-26T06:31:27;6.43;;;5.80;;
67839;SDS011;54636;51.684;5.142;2024-02-26T06:33:53;6.28;;;5.70;;
67839;SDS011;54636;51.684;5.142;2024-02-26T06:36:19;7.13;;;5.80;;
67839;SDS011;54636;51.684;5.142;2024-02-26T06:38:44;4.88;;;4.47;;
67839;SDS011;54636;51.684;5.142;2024-02-26T06:41:10;5.32;;;4.95;;
67839;SDS011;54636;51.684;5.142;2024-02-26T06:43:36;6.50;;;4.85;;
67839;SDS011;54636;51.684;5.142;2024-02-26T06:46:02;6.00;;;5.50;;
67839;SDS011;54636;51.684;5.142;2024-02-26T06:48:27;8.65;;;5.53;;
67839;SDS011;54636;51.684;5.142;2024-02-26T06:50:53;5.93;;;5.45;;
67839;SDS011;54636;51.684;5.142;2024-02-26T06:53:18;5.72;;;5.22;;
67839;SDS011;54636;51.684;5.142;2024-02-26T06:55:44;6.63;;;6.13;;
67839;SDS011;54636;51.684;5.142;2024-02-26T06:58:09;25.30;;;8.27;;
67839;SDS011;54636;51.684;5.142;2024-02-26T07:00:35;6.72;;;5.85;;
67839;SDS011;54636;51.684;5.142;2024-02-26T07:03:00;6.88;;;6.05;;
67839;SDS011;54636;51.684;5.142;2024-02-26T07:05:26;5.85;;;5.45;;
67839;SDS011;54636;51.684;5.142;2024-02-26T07:07:52;5.93;;;5.43;;
67839;SDS011;54636;51.684;5.142;2024-02-26T07:10:17;6.18;;;5.72;;
67839;SDS011;54636;51.684;5.142;2024-02-26T07:12:43;6.70;;;6.22;;
67839;SDS011;54636;51.684;5.142;2024-02-26T07:15:09;7.70;;;5.63;;
67839;SDS011;54636;51.684;5.142;2024-02-26T07:17:35;9.27;;;5.32;;
67839;SDS011;54636;51.684;5.142;2024-02-26T07:20:00;5.28;;;4.78;;
67839;SDS011;54636;51.684;5.142;2024-02-26T07:22:26;6.13;;;5.68;;
67839;SDS011;54636;51.684;5.142;2024-02-26T07:24:51;8.70;;;5.88;;
67839;SDS011;54636;51.684;5.142;2024-02-26T07:27:18;5.50;;;5.20;;
67839;SDS011;54636;51.684;5.142;2024-02-26T07:29:43;7.00;;;6.38;;
67839;SDS011;54636;51.684;5.142;2024-02-26T07:32:09;6.38;;;5.88;;
67839;SDS011;54636;51.684;5.142;2024-02-26T07:34:35;6.15;;;5.65;;
67839;SDS011;54636;51.684;5.142;2024-02-26T07:37:02;6.65;;;6.07;;
67839;SDS011;54636;51.684;5.142;2024-02-26T07:39:28;6.00;;;5.50;;
67839;SDS011;54636;51.684;5.142;2024-02-26T07:41:53;7.40;;;6.07;;
67839;SDS011;54636;51.684;5.142;2024-02-26T07:44:19;5.75;;;4.95;;
67839;SDS011;54636;51.684;5.142;2024-02-26T07:46:44;8.52;;;6.55;;
67839;SDS011;54636;51.684;5.142;2024-02-26T07:49:09;8.77;;;7.43;;
67839;SDS011;54636;51.684;5.142;2024-02-26T07:51:35;6.88;;;6.28;;
67839;SDS011;54636;51.684;5.142;2024-02-26T07:54:00;7.10;;;6.50;;
67839;SDS011;54636;51.684;5.142;2024-02-26T07:56:26;7.47;;;6.78;;
67839;SDS011;54636;51.684;5.142;2024-02-26T07:58:51;6.43;;;5.93;;
67839;SDS011;54636;51.684;5.142;2024-02-26T08:01:17;7.43;;;6.82;;
67839;SDS011;54636;51.684;5.142;2024-02-26T08:03:42;6.75;;;6.07;;
67839;SDS011;54636;51.684;5.142;2024-02-26T08:06:08;8.82;;;6.85;;
67839;SDS011;54636;51.684;5.142;2024-02-26T08:08:33;7.03;;;6.43;;
67839;SDS011;54636;51.684;5.142;2024-02-26T08:10:59;6.97;;;6.28;;
67839;SDS011;54636;51.684;5.142;2024-02-26T08:13:24;8.05;;;7.28;;
67839;SDS011;54636;51.684;5.142;2024-02-26T08:15:51;12.10;;;8.27;;
67839;SDS011;54636;51.684;5.142;2024-02-26T08:18:17;8.95;;;6.80;;
67839;SDS011;54636;51.684;5.142;2024-02-26T08:20:42;8.10;;;7.47;;
67839;SDS011;54636;51.684;5.142;2024-02-26T08:23:07;12.30;;;10.90;;
67839;SDS011;54636;51.684;5.142;2024-02-26T08:25:33;11.50;;;10.40;;
67839;SDS011;54636;51.684;5.142;2024-02-26T08:27:58;10.30;;;9.32;;
67839;SDS011;54636;51.684;5.142;2024-02-26T08:30:24;14.73;;;9.98;;
67839;SDS011;54636;51.684;5.142;2024-02-26T08:32:49;13.32;;;10.95;;
67839;SDS011;54636;51.684;5.142;2024-02-26T08:35:14;10.82;;;9.77;;
67839;SDS011;54636;51.684;5.142;2024-02-26T08:37:43;11.65;;;10.48;;
67839;SDS011;54636;51.684;5.142;2024-02-26T08:40:10;10.87;;;9.77;;
67839;SDS011;54636;51.684;5.142;2024-02-26T08:42:35;10.57;;;8.50;;
67839;SDS011;54636;51.684;5.142;2024-02-26T08:45:01;12.48;;;9.35;;
67839;SDS011;54636;51.684;5.142;2024-02-26T08:47:27;12.77;;;11.27;;
67839;SDS011;54636;51.684;5.142;2024-02-26T08:49:53;8.30;;;7.07;;
67839;SDS011;54636;51.684;5.142;2024-02-26T08:52:18;12.07;;;10.88;;
67839;SDS011;54636;51.684;5.142;2024-02-26T08:54:44;12.77;;;10.45;;
67839;SDS011;54636;51.684;5.142;2024-02-26T08:57:09;12.23;;;9.05;;
67839;SDS011;54636;51.684;5.142;2024-02-26T08:59:34;13.68;;;10.63;;
67839;SDS011;54636;51.684;5.142;2024-02-26T09:02:00;13.20;;;10.52;;
67839;SDS011;54636;51.684;5.142;2024-02-26T09:04:25;11.68;;;9.95;;
67839;SDS011;54636;51.684;5.142;2024-02-26T09:06:52;13.98;;;11.13;;
67839;SDS011;54636;51.684;5.142;2024-02-26T09:09:17;15.05;;;11.75;;
67839;SDS011;54636;51.684;5.142;2024-02-26T09:11:43;14.38;;;12.13;;
67839;SDS011;54636;51.684;5.142;2024-02-26T09:14:08;16.05;;;13.30;;
67839;SDS011;54636;51.684;5.142;2024-02-26T09:16:33;14.45;;;9.13;;
67839;SDS011;54636;51.684;5.142;2024-02-26T09:18:59;11.13;;;9.15;;
67839;SDS011;54636;51.684;5.142;2024-02-26T09:21:24;13.77;;;11.30;;
67839;SDS011;54636;51.684;5.142;2024-02-26T09:23:50;17.98;;;11.77;;
67839;SDS011;54636;51.684;5.142;2024-02-26T09:26:16;16.05;;;10.52;;
67839;SDS011;54636;51.684;5.142;2024-02-26T09:28:42;15.68;;;11.68;;
67839;SDS011;54636;51.684;5.142;2024-02-26T09:31:07;16.23;;;11.18;;
67839;SDS011;54636;51.684;5.142;2024-02-26T09:33:33;17.40;;;11.63;;
67839;SDS011;54636;51.684;5.142;2024-02-26T09:35:58;21.50;;;12.48;;
67839;SDS011;54636;51.684;5.142;2024-02-26T09:38:25;19.85;;;12.35;;
67839;SDS011;54636;51.684;5.142;2024-02-26T09:40:51;20.35;;;13.27;;
67839;SDS011;54636;51.684;5.142;2024-02-26T09:43:17;25.20;;;15.50;;
67839;SDS011;54636;51.684;5.142;2024-02-26T09:45:47;23.85;;;16.05;;
67839;SDS011;54636;51.684;5.142;2024-02-26T09:48:14;18.27;;;12.93;;
67839;SDS011;54636;51.684;5.142;2024-02-26T09:50:42;28.55;;;19.85;;
67839;SDS011;54636;51.684;5.142;2024-02-26T09:53:09;26.10;;;16.92;;
67839;SDS011;54636;51.684;5.142;2024-02-26T09:55:36;23.67;;;14.55;;
67839;SDS011;54636;51.684;5.142;2024-02-26T09:58:01;26.98;;;16.92;;
67839;SDS011;54636;51.684;5.142;2024-02-26T10:00:30;29.20;;;16.60;;
67839;SDS011;54636;51.684;5.142;2024-02-26T10:03:03;31.87;;;18.23;;
67839;SDS011;54636;51.684;5.142;2024-02-26T10:07:56;25.15;;;13.65;;
67839;SDS011;54636;51.684;5.142;2024-02-26T10:10:22;19.67;;;12.88;;
67839;SDS011;54636;51.684;5.142;2024-02-26T10:12:48;26.35;;;15.95;;
67839;SDS011;54636;51.684;5.142;2024-02-26T10:15:14;26.95;;;16.02;;
67839;SDS011;54636;51.684;5.142;2024-02-26T10:17:40;22.85;;;14.15;;
67839;SDS011;54636;51.684;5.142;2024-02-26T10:20:13;21.20;;;13.27;;
67839;SDS011;54636;51.684;5.142;2024-02-26T10:22:40;17.15;;;12.30;;
67839;SDS011;54636;51.684;5.142;2024-02-26T10:25:07;20.33;;;13.45;;
67839;SDS011;54636;51.684;5.142;2024-02-26T10:27:33;16.55;;;12.02;;
67839;SDS011;54636;51.684;5.142;2024-02-26T10:30:02;18.55;;;12.00;;
67839;SDS011;54636;51.684;5.142;2024-02-26T10:32:51;11.80;;;9.20;;
67839;SDS011;54636;51.684;5.142;2024-02-26T10:35:17;19.02;;;12.05;;
67839;SDS011;54636;51.684;5.142;2024-02-26T10:37:43;20.88;;;14.02;;
67839;SDS011;54636;51.684;5.142;2024-02-26T10:40:12;18.17;;;12.27;;
67839;SDS011;54636;51.684;5.142;2024-02-26T10:42:39;21.02;;;13.50;;
67839;SDS011;54636;51.684;5.142;2024-02-26T10:45:08;20.75;;;13.13;;
67839;SDS011;54636;51.684;5.142;2024-02-26T10:47:35;16.38;;;11.13;;
67839;SDS011;54636;51.684;5.142;2024-02-26T10:50:02;18.08;;;11.52;;
67839;SDS011;54636;51.684;5.142;2024-02-26T10:52:28;20.20;;;13.50;;
67839;SDS011;54636;51.684;5.142;2024-02-26T10:54:57;19.42;;;11.32;;
67839;SDS011;54636;51.684;5.142;2024-02-26T10:57:27;19.45;;;14.63;;
67839;SDS011;54636;51.684;5.142;2024-02-26T10:59:57;15.25;;;12.05;;
67839;SDS011;54636;51.684;5.142;2024-02-26T11:02:25;13.13;;;11.68;;
67839;SDS011;54636;51.684;5.142;2024-02-26T11:04:51;18.75;;;12.38;;
67839;SDS011;54636;51.684;5.142;2024-02-26T11:07:16;18.52;;;12.90;;
67839;SDS011;54636;51.684;5.142;2024-02-26T11:09:44;16.55;;;12.73;;
67839;SDS011;54636;51.684;5.142;2024-02-26T11:12:16;13.48;;;9.48;;
67839;SDS011;54636;51.684;5.142;2024-02-26T11:14:44;16.33;;;13.00;;
67839;SDS011;54636;51.684;5.142;2024-02-26T11:17:11;14.15;;;11.30;;
67839;SDS011;54636;51.684;5.142;2024-02-26T11:19:38;17.20;;;12.55;;
67839;SDS011;54636;51.684;5.142;2024-02-26T11:22:06;11.25;;;9.45;;
67839;SDS011;54636;51.684;5.142;2024-02-26T11:24:32;19.90;;;12.70;;
67839;SDS011;54636;51.684;5.142;2024-02-26T11:26:58;12.15;;;10.18;;
67839;SDS011;54636;51.684;5.142;2024-02-26T11:29:29;15.57;;;11.83;;
67839;SDS011;54636;51.684;5.142;2024-02-26T11:32:03;15.77;;;11.45;;
67839;SDS011;54636;51.684;5.142;2024-02-26T11:34:28;10.82;;;8.65;;
67839;SDS011;54636;51.684;5.142;2024-02-26T11:36:54;14.18;;;11.38;;
67839;SDS011;54636;51.684;5.142;2024-02-26T11:39:21;22.02;;;13.25;;
67839;SDS011;54636;51.684;5.142;2024-02-26T11:41:47;11.00;;;8.57;;
67839;SDS011;54636;51.684;5.142;2024-02-26T11:44:12;10.98;;;8.95;;
67839;SDS011;54636;51.684;5.142;2024-02-26T11:46:39;12.63;;;9.23;;
67839;SDS011;54636;51.684;5.142;2024-02-26T11:51:52;17.15;;;11.73;;
67839;SDS011;54636;51.684;5.142;2024-02-26T11:59:47;13.63;;;10.55;;
67839;SDS011;54636;51.684;5.142;2024-02-26T12:05:07;14.18;;;11.95;;
67839;SDS011;54636;51.684;5.142;2024-02-26T12:07:52;17.58;;;11.85;;
67839;SDS011;54636;51.684;5.142;2024-02-26T12:10:30;12.02;;;9.75;;
67839;SDS011;54636;51.684;5.142;2024-02-26T12:15:43;16.42;;;12.32;;
67839;SDS011;54636;51.684;5.142;2024-02-26T12:18:10;17.83;;;12.80;;
67839;SDS011;54636;51.684;5.142;2024-02-26T12:20:42;11.52;;;10.30;;
67839;SDS011;54636;51.684;5.142;2024-02-26T12:23:15;10.98;;;9.88;;
67839;SDS011;54636;51.684;5.142;2024-02-26T12:25:42;15.68;;;12.00;;
67839;SDS011;54636;51.684;5.142;2024-02-26T12:28:09;15.40;;;13.00;;
67839;SDS011;54636;51.684;5.142;2024-02-26T12:30:34;15.45;;;10.88;;
67839;SDS011;54636;51.684;5.142;2024-02-26T12:33:00;13.60;;;11.20;;
67839;SDS011;54636;51.684;5.142;2024-02-26T12:35:27;11.13;;;10.02;;
67839;SDS011;54636;51.684;5.142;2024-02-26T12:37:53;14.65;;;12.88;;
67839;SDS011;54636;51.684;5.142;2024-02-26T12:40:19;11.45;;;9.93;;
67839;SDS011;54636;51.684;5.142;2024-02-26T12:42:45;12.90;;;10.00;;
67839;SDS011;54636;51.684;5.142;2024-02-26T12:45:11;20.23;;;11.40;;
67839;SDS011;54636;51.684;5.142;2024-02-26T12:47:38;12.27;;;10.98;;
67839;SDS011;54636;51.684;5.142;2024-02-26T12:50:04;10.57;;;8.77;;
67839;SDS011;54636;51.684;5.142;2024-02-26T12:52:34;17.08;;;9.30;;
67839;SDS011;54636;51.684;5.142;2024-02-26T12:55:03;11.32;;;10.15;;
67839;SDS011;54636;51.684;5.142;2024-02-26T12:57:32;12.98;;;11.60;;
67839;SDS011;54636;51.684;5.142;2024-02-26T12:59:59;13.93;;;11.07;;
67839;SDS011;54636;51.684;5.142;2024-02-26T13:02:25;10.88;;;8.73;;
67839;SDS011;54636;51.684;5.142;2024-02-26T13:04:52;12.30;;;10.35;;
67839;SDS011;54636;51.684;5.142;2024-02-26T13:07:19;13.07;;;11.35;;
67839;SDS011;54636;51.684;5.142;2024-02-26T13:09:45;13.93;;;12.52;;
67839;SDS011;54636;51.684;5.142;2024-02-26T13:12:11;11.90;;;10.20;;
67839;SDS011;54636;51.684;5.142;2024-02-26T13:14:37;11.27;;;9.80;;
67839;SDS011;54636;51.684;5.142;2024-02-26T13:17:03;14.25;;;9.63;;
67839;SDS011;54636;51.684;5.142;2024-02-26T13:19:28;16.25;;;9.93;;
67839;SDS011;54636;51.684;5.142;2024-02-26T13:21:54;9.18;;;8.10;;
67839;SDS011;54636;51.684;5.142;2024-02-26T13:24:20;14.38;;;10.05;;
67839;SDS011;54636;51.684;5.142;2024-02-26T13:26:47;9.60;;;7.10;;
67839;SDS011;54636;51.684;5.142;2024-02-26T13:29:18;8.20;;;7.40;;
67839;SDS011;54636;51.684;5.142;2024-02-26T13:31:44;13.85;;;8.10;;
67839;SDS011;54636;51.684;5.142;2024-02-26T13:34:09;10.80;;;8.35;;
67839;SDS011;54636;51.684;5.142;2024-02-26T13:36:35;14.13;;;10.20;;
67839;SDS011;54636;51.684;5.142;2024-02-26T13:39:01;9.23;;;8.15;;
67839;SDS011;54636;51.684;5.142;2024-02-26T13:41:29;14.20;;;10.23;;
67839;SDS011;54636;51.684;5.142;2024-02-26T13:43:55;8.55;;;7.55;;
67839;SDS011;54636;51.684;5.142;2024-02-26T13:46:22;9.82;;;8.80;;
67839;SDS011;54636;51.684;5.142;2024-02-26T13:48:48;7.30;;;6.70;;
67839;SDS011;54636;51.684;5.142;2024-02-26T13:51:13;9.50;;;8.38;;
67839;SDS011;54636;51.684;5.142;2024-02-26T13:53:39;9.85;;;7.40;;
67839;SDS011;54636;51.684;5.142;2024-02-26T13:56:04;10.57;;;7.75;;
67839;SDS011;54636;51.684;5.142;2024-02-26T13:58:30;6.43;;;5.70;;
67839;SDS011;54636;51.684;5.142;2024-02-26T14:00:56;12.73;;;9.40;;
67839;SDS011;54636;51.684;5.142;2024-02-26T14:03:21;11.77;;;8.50;;
67839;SDS011;54636;51.684;5.142;2024-02-26T14:05:47;14.25;;;7.82;;
67839;SDS011;54636;51.684;5.142;2024-02-26T14:08:13;17.55;;;8.18;;
67839;SDS011;54636;51.684;5.142;2024-02-26T14:10:39;9.15;;;7.65;;
67839;SDS011;54636;51.684;5.142;2024-02-26T14:13:05;7.70;;;6.90;;
67839;SDS011;54636;51.684;5.142;2024-02-26T14:15:30;9.50;;;8.50;;
67839;SDS011;54636;51.684;5.142;2024-02-26T14:17:56;6.45;;;5.93;;
67839;SDS011;54636;51.684;5.142;2024-02-26T14:20:22;15.90;;;7.65;;
67839;SDS011;54636;51.684;5.142;2024-02-26T14:22:51;8.30;;;7.45;;
67839;SDS011;54636;51.684;5.142;2024-02-26T14:25:18;7.95;;;7.25;;
67839;SDS011;54636;51.684;5.142;2024-02-26T14:27:45;7.30;;;6.70;;
67839;SDS011;54636;51.684;5.142;2024-02-26T14:30:11;7.38;;;6.78;;
67839;SDS011;54636;51.684;5.142;2024-02-26T14:32:37;6.35;;;5.70;;
67839;SDS011;54636;51.684;5.142;2024-02-26T14:35:04;10.93;;;8.82;;
67839;SDS011;54636;51.684;5.142;2024-02-26T14:37:31;10.85;;;8.05;;
67839;SDS011;54636;51.684;5.142;2024-02-26T14:39:57;9.20;;;8.05;;
67839;SDS011;54636;51.684;5.142;2024-02-26T14:42:22;8.13;;;7.03;;
67839;SDS011;54636;51.684;5.142;2024-02-26T14:44:49;9.32;;;7.72;;
67839;SDS011;54636;51.684;5.142;2024-02-26T14:47:15;9.57;;;8.65;;
67839;SDS011;54636;51.684;5.142;2024-02-26T14:49:41;7.57;;;6.75;;